Time;durP1;ratioP1;P1;durP2;ratioP2;P2;SDS_P1;SDS_P2;PMS_P1;PMS_P2;Temp;Humidity;BMP_temperature;BMP_pressure;BME280_temperature;BME280_humidity;BME280_pressure;Samples;Min_cycle;Max_cycle;Signal;HPM_P1;HPM_P2
2022/07/22 00:01:36;;;;;;;41.13;11.75;;;;;;;;;;4217797;34;20120;-64
2022/07/22 00:33:25;;;;;;;17.73;7.50;;;;;;;;;;4710336;28;20173;-62
2022/07/22 00:35:51;;;;;;;19.55;5.87;;;;;;;;;;4235907;33;20077;-61
2022/07/22 00:38:17;;;;;;;18.33;5.35;;;;;;;;;;4245578;33;20089;-61
2022/07/22 00:40:43;;;;;;;5.75;3.97;;;;;;;;;;4246851;33;20113;-61
2022/07/22 00:43:09;;;;;;;8.50;3.45;;;;;;;;;;4247807;33;20116;-61
2022/07/22 00:45:35;;;;;;;6.53;3.28;;;;;;;;;;4247693;33;20227;-61
2022/07/22 00:48:01;;;;;;;5.00;3.20;;;;;;;;;;4247966;33;20140;-60
2022/07/22 00:50:27;;;;;;;5.25;2.90;;;;;;;;;;4247685;33;20128;-61
2022/07/22 00:52:53;;;;;;;3.45;2.83;;;;;;;;;;4247628;33;20652;-67
2022/07/22 00:55:19;;;;;;;11.65;2.97;;;;;;;;;;4234472;33;20124;-68
2022/07/22 00:57:45;;;;;;;6.35;2.72;;;;;;;;;;4247922;33;20536;-68
2022/07/22 01:00:15;;;;;;;5.43;2.75;;;;;;;;;;4247656;33;20137;-68
2022/07/22 01:02:41;;;;;;;4.60;2.97;;;;;;;;;;4247532;33;20140;-62
2022/07/22 01:05:07;;;;;;;5.30;3.08;;;;;;;;;;4247808;33;20097;-62
2022/07/22 01:07:34;;;;;;;9.23;4.18;;;;;;;;;;4247610;33;20133;-63
2022/07/22 01:10:00;;;;;;;6.40;3.90;;;;;;;;;;4247464;33;20195;-61
2022/07/22 01:12:26;;;;;;;5.85;3.30;;;;;;;;;;4246143;33;20181;-62
2022/07/22 01:14:52;;;;;;;13.95;4.62;;;;;;;;;;4247455;33;20099;-62
2022/07/22 01:17:18;;;;;;;6.53;4.35;;;;;;;;;;4247436;33;20147;-60
2022/07/22 01:19:44;;;;;;;9.40;4.82;;;;;;;;;;4247327;33;20107;-61
2022/07/22 01:22:10;;;;;;;11.40;3.75;;;;;;;;;;4247488;33;20459;-60
2022/07/22 01:24:36;;;;;;;11.48;5.05;;;;;;;;;;4247292;33;20105;-61
2022/07/22 01:27:02;;;;;;;20.80;8.73;;;;;;;;;;4247324;33;20109;-61
2022/07/22 01:29:29;;;;;;;43.60;12.80;;;;;;;;;;4247277;33;20172;-61
2022/07/22 01:31:55;;;;;;;32.83;8.95;;;;;;;;;;4222847;33;20499;-61
2022/07/22 01:34:21;;;;;;;29.60;8.80;;;;;;;;;;4247204;33;20090;-62
2022/07/22 01:36:47;;;;;;;17.25;5.90;;;;;;;;;;4247457;33;20090;-63
2022/07/22 01:39:13;;;;;;;12.05;4.82;;;;;;;;;;4247149;33;20107;-63
2022/07/22 01:41:40;;;;;;;6.43;4.25;;;;;;;;;;4234085;33;20508;-63
2022/07/22 01:44:06;;;;;;;12.70;4.65;;;;;;;;;;4247250;33;20627;-62
2022/07/22 01:46:32;;;;;;;7.25;3.00;;;;;;;;;;4247073;33;20134;-62
2022/07/22 01:48:58;;;;;;;6.68;3.80;;;;;;;;;;4247120;33;20089;-62
2022/07/22 01:51:24;;;;;;;5.60;4.07;;;;;;;;;;4233284;33;20184;-62
2022/07/22 01:53:50;;;;;;;8.07;3.33;;;;;;;;;;4246907;33;20132;-62
2022/07/22 01:56:16;;;;;;;5.30;3.10;;;;;;;;;;4247091;33;20133;-62
2022/07/22 01:58:42;;;;;;;7.07;3.60;;;;;;;;;;4247184;33;20207;-63
2022/07/22 02:01:08;;;;;;;6.68;3.33;;;;;;;;;;4247057;33;20112;-62
2022/07/22 02:03:34;;;;;;;5.35;3.85;;;;;;;;;;4222282;33;20208;-63
2022/07/22 02:06:00;;;;;;;3.45;2.83;;;;;;;;;;4246970;33;20470;-61
2022/07/22 02:08:26;;;;;;;5.35;2.78;;;;;;;;;;4247310;33;20109;-62
2022/07/22 02:10:52;;;;;;;3.60;2.70;;;;;;;;;;4247030;33;20101;-60
2022/07/22 02:13:18;;;;;;;3.75;2.60;;;;;;;;;;4245869;33;20197;-61
2022/07/22 02:15:44;;;;;;;4.72;2.58;;;;;;;;;;4247010;33;20216;-61
2022/07/22 02:18:11;;;;;;;3.92;2.40;;;;;;;;;;4247056;33;20113;-62
2022/07/22 02:20:37;;;;;;;4.62;2.60;;;;;;;;;;4246836;33;20611;-62
2022/07/22 02:23:03;;;;;;;7.10;2.90;;;;;;;;;;4246986;33;20528;-61
2022/07/22 02:25:29;;;;;;;4.53;3.22;;;;;;;;;;4246780;33;20135;-63
2022/07/22 02:27:55;;;;;;;5.45;3.00;;;;;;;;;;4246826;33;20543;-62
2022/07/22 02:30:21;;;;;;;5.32;3.08;;;;;;;;;;4233717;33;20195;-63
2022/07/22 02:32:47;;;;;;;3.40;2.62;;;;;;;;;;4246715;33;20130;-62
2022/07/22 02:35:13;;;;;;;3.78;3.05;;;;;;;;;;4245604;33;20116;-62
2022/07/22 02:37:39;;;;;;;5.40;2.60;;;;;;;;;;4246713;33;20144;-63
2022/07/22 02:40:07;;;;;;;3.92;2.58;;;;;;;;;;4233728;33;20097;-62
2022/07/22 02:42:33;;;;;;;4.03;2.70;;;;;;;;;;4246596;33;20152;-63
2022/07/22 02:44:59;;;;;;;4.93;2.60;;;;;;;;;;4246784;33;20101;-62
2022/07/22 02:47:25;;;;;;;7.55;2.75;;;;;;;;;;4246676;33;20188;-62
2022/07/22 02:49:51;;;;;;;3.00;2.60;;;;;;;;;;4233762;33;20136;-62
2022/07/22 02:52:18;;;;;;;3.45;2.45;;;;;;;;;;4246661;33;20131;-62
2022/07/22 02:54:44;;;;;;;4.93;2.95;;;;;;;;;;4246630;33;20512;-62
2022/07/22 02:57:10;;;;;;;6.62;3.05;;;;;;;;;;4246899;33;20129;-61
2022/07/22 02:59:36;;;;;;;9.77;3.15;;;;;;;;;;4246561;33;20115;-61
2022/07/22 03:02:02;;;;;;;10.13;3.03;;;;;;;;;;4246756;33;20239;-61
2022/07/22 03:04:28;;;;;;;14.02;3.80;;;;;;;;;;4233027;33;20109;-62
2022/07/22 03:06:54;;;;;;;13.23;3.28;;;;;;;;;;4246329;33;20132;-62
2022/07/22 03:09:21;;;;;;;9.15;2.87;;;;;;;;;;4245232;33;20108;-63
2022/07/22 03:11:47;;;;;;;11.30;2.95;;;;;;;;;;4246392;33;20458;-63
2022/07/22 03:14:13;;;;;;;7.97;2.55;;;;;;;;;;4246429;33;20119;-62
2022/07/22 03:16:39;;;;;;;10.20;3.65;;;;;;;;;;4246347;33;20121;-62
2022/07/22 03:19:05;;;;;;;11.32;2.70;;;;;;;;;;4246431;33;20207;-62
2022/07/22 03:21:31;;;;;;;4.97;2.80;;;;;;;;;;4246179;33;20109;-63
2022/07/22 03:23:57;;;;;;;2.40;2.20;;;;;;;;;;4246314;33;20120;-63
2022/07/22 03:26:23;;;;;;;3.97;2.92;;;;;;;;;;4246217;33;20124;-62
2022/07/22 03:28:50;;;;;;;7.82;2.85;;;;;;;;;;4245704;33;20124;-62
2022/07/22 03:31:16;;;;;;;6.05;2.75;;;;;;;;;;4232617;33;20555;-65
2022/07/22 03:33:42;;;;;;;4.87;2.17;;;;;;;;;;4244022;33;20125;-64
2022/07/22 03:36:08;;;;;;;7.68;2.85;;;;;;;;;;4238692;33;20187;-64
2022/07/22 03:38:35;;;;;;;5.05;2.53;;;;;;;;;;4242947;33;20187;-64
2022/07/22 03:41:03;;;;;;;7.30;3.15;;;;;;;;;;4233140;33;20511;-63
2022/07/22 03:43:33;;;;;;;11.55;3.42;;;;;;;;;;4221795;33;20149;-63
2022/07/22 03:45:59;;;;;;;7.35;3.30;;;;;;;;;;4246265;33;20119;-63
2022/07/22 03:48:25;;;;;;;20.20;3.65;;;;;;;;;;4233209;33;20203;-63
2022/07/22 03:50:51;;;;;;;13.52;3.10;;;;;;;;;;4233182;33;20097;-64
2022/07/22 03:53:17;;;;;;;9.27;3.17;;;;;;;;;;4232806;33;20187;-64
2022/07/22 03:55:43;;;;;;;22.90;2.92;;;;;;;;;;4245998;33;20203;-64
2022/07/22 03:58:09;;;;;;;8.07;2.87;;;;;;;;;;4246088;33;20644;-64
2022/07/22 04:00:35;;;;;;;14.27;3.65;;;;;;;;;;4233019;33;20120;-64
2022/07/22 04:03:01;;;;;;;14.57;3.25;;;;;;;;;;4245973;33;20128;-64
2022/07/22 04:05:27;;;;;;;8.60;2.53;;;;;;;;;;4245760;33;20113;-63
2022/07/22 04:07:53;;;;;;;10.75;3.03;;;;;;;;;;4245831;33;20187;-64
2022/07/22 04:10:19;;;;;;;4.20;2.50;;;;;;;;;;4245817;33;20135;-62
2022/07/22 04:12:46;;;;;;;6.90;3.40;;;;;;;;;;4245788;33;20117;-63
2022/07/22 04:15:12;;;;;;;8.63;4.00;;;;;;;;;;4244956;33;20116;-65
2022/07/22 04:17:38;;;;;;;8.30;3.42;;;;;;;;;;4228093;33;21006;-63
2022/07/22 04:20:05;;;;;;;6.37;3.40;;;;;;;;;;4244116;33;20410;-63
2022/07/22 04:22:31;;;;;;;7.50;2.42;;;;;;;;;;4255054;33;20135;-63
2022/07/22 04:24:57;;;;;;;3.58;2.47;;;;;;;;;;4246822;33;20124;-62
2022/07/22 04:27:23;;;;;;;9.90;2.80;;;;;;;;;;4234504;33;20139;-63
2022/07/22 04:29:49;;;;;;;18.42;3.87;;;;;;;;;;4247705;33;20129;-63
2022/07/22 04:32:15;;;;;;;13.48;3.72;;;;;;;;;;4234728;33;20132;-63
2022/07/22 04:34:41;;;;;;;19.08;4.07;;;;;;;;;;4234744;33;20207;-64
2022/07/22 04:37:08;;;;;;;7.90;3.10;;;;;;;;;;4247827;33;20160;-62
2022/07/22 04:39:34;;;;;;;9.27;3.17;;;;;;;;;;4247775;33;20141;-64
2022/07/22 04:42:00;;;;;;;13.15;3.40;;;;;;;;;;4247789;33;20196;-64
2022/07/22 04:44:26;;;;;;;7.10;2.87;;;;;;;;;;4234597;33;20528;-63
2022/07/22 04:46:52;;;;;;;9.35;2.70;;;;;;;;;;4247684;33;20125;-62
2022/07/22 04:49:18;;;;;;;6.45;2.97;;;;;;;;;;4247684;33;20202;-62
2022/07/22 04:51:44;;;;;;;10.38;3.58;;;;;;;;;;4247729;33;20097;-61
2022/07/22 04:54:10;;;;;;;7.75;2.80;;;;;;;;;;4247622;33;20192;-62
2022/07/22 04:56:36;;;;;;;17.98;3.62;;;;;;;;;;4234471;33;20120;-65
2022/07/22 04:59:02;;;;;;;10.13;3.30;;;;;;;;;;4247888;33;20507;-65
2022/07/22 05:01:28;;;;;;;17.05;3.80;;;;;;;;;;4247613;33;20208;-62
2022/07/22 05:03:54;;;;;;;9.52;3.42;;;;;;;;;;4247541;33;20133;-62
2022/07/22 05:06:20;;;;;;;11.25;2.90;;;;;;;;;;4247512;33;20116;-63
2022/07/22 05:08:46;;;;;;;9.68;3.20;;;;;;;;;;4247437;33;20143;-63
2022/07/22 05:11:12;;;;;;;5.05;2.47;;;;;;;;;;4247530;33;20200;-63
2022/07/22 05:13:38;;;;;;;6.03;2.50;;;;;;;;;;4247876;33;20116;-65
2022/07/22 05:16:05;;;;;;;7.15;2.80;;;;;;;;;;4247553;33;20224;-65
2022/07/22 05:18:31;;;;;;;10.68;3.05;;;;;;;;;;4247539;33;20198;-65
2022/07/22 05:20:57;;;;;;;9.65;3.60;;;;;;;;;;4247534;33;20140;-63
2022/07/22 05:23:23;;;;;;;6.75;3.60;;;;;;;;;;4234068;33;20137;-65
2022/07/22 05:25:49;;;;;;;18.45;3.70;;;;;;;;;;4247446;33;20112;-65
2022/07/22 05:28:15;;;;;;;11.93;4.72;;;;;;;;;;4247729;33;20131;-65
2022/07/22 05:30:41;;;;;;;7.43;3.42;;;;;;;;;;4247390;33;20128;-64
2022/07/22 05:33:07;;;;;;;6.10;3.55;;;;;;;;;;4247251;33;20495;-64
2022/07/22 05:35:33;;;;;;;6.87;3.85;;;;;;;;;;4247268;33;20120;-64
2022/07/22 05:37:59;;;;;;;13.48;3.62;;;;;;;;;;4247407;33;20104;-63
2022/07/22 05:40:25;;;;;;;9.80;3.75;;;;;;;;;;4247323;33;20103;-64
2022/07/22 05:42:51;;;;;;;6.75;4.22;;;;;;;;;;4247100;33;20192;-64
2022/07/22 05:45:17;;;;;;;17.15;6.15;;;;;;;;;;4234074;33;20108;-61
2022/07/22 05:47:43;;;;;;;10.43;5.60;;;;;;;;;;4234103;33;20124;-57
2022/07/22 05:50:10;;;;;;;12.75;5.37;;;;;;;;;;4222518;33;20103;-59
2022/07/22 05:52:36;;;;;;;15.57;4.82;;;;;;;;;;4234038;33;20113;-62
2022/07/22 05:55:03;;;;;;;12.25;5.05;;;;;;;;;;4247145;33;20200;-61
2022/07/22 05:57:29;;;;;;;20.60;5.10;;;;;;;;;;4247273;33;20132;-62
2022/07/22 05:59:55;;;;;;;16.92;5.10;;;;;;;;;;4234013;33;20136;-64
2022/07/22 06:02:21;;;;;;;10.80;4.12;;;;;;;;;;4246977;33;20123;-63
2022/07/22 06:04:47;;;;;;;31.35;6.32;;;;;;;;;;4247377;33;20294;-64
2022/07/22 06:07:13;;;;;;;21.08;6.90;;;;;;;;;;4246926;33;20105;-61
2022/07/22 06:09:39;;;;;;;12.30;4.45;;;;;;;;;;4247019;33;20496;-63
2022/07/22 06:12:05;;;;;;;14.43;4.30;;;;;;;;;;4247291;33;20203;-63
2022/07/22 06:14:31;;;;;;;15.85;5.35;;;;;;;;;;4246901;33;20195;-63
2022/07/22 06:16:57;;;;;;;18.95;4.22;;;;;;;;;;4246961;33;20117;-63
2022/07/22 06:19:24;;;;;;;15.93;3.62;;;;;;;;;;4246985;33;20095;-63
2022/07/22 06:21:50;;;;;;;5.90;3.22;;;;;;;;;;4246883;33;20191;-63
2022/07/22 06:24:16;;;;;;;13.02;3.25;;;;;;;;;;4234137;33;20130;-62
2022/07/22 06:26:44;;;;;;;8.65;2.92;;;;;;;;;;4233576;33;20109;-62
2022/07/22 06:29:10;;;;;;;13.88;3.37;;;;;;;;;;4246914;33;20100;-62
2022/07/22 06:31:36;;;;;;;11.73;3.55;;;;;;;;;;4247016;33;20096;-60
2022/07/22 06:34:05;;;;;;;19.58;3.53;;;;;;;;;;4210325;33;20183;-62
2022/07/22 06:36:32;;;;;;;10.55;3.58;;;;;;;;;;4246943;33;20104;-61
2022/07/22 06:38:58;;;;;;;12.85;3.58;;;;;;;;;;4246507;33;20205;-61
2022/07/22 06:41:25;;;;;;;5.43;3.35;;;;;;;;;;4246706;33;20128;-61
2022/07/22 06:43:51;;;;;;;9.65;5.18;;;;;;;;;;4246883;33;20175;-61
2022/07/22 06:46:17;;;;;;;10.77;3.50;;;;;;;;;;4246619;33;20121;-61
2022/07/22 06:48:43;;;;;;;16.65;4.90;;;;;;;;;;4233605;33;20088;-62
2022/07/22 06:51:09;;;;;;;13.45;5.18;;;;;;;;;;4246893;33;20085;-60
2022/07/22 06:53:35;;;;;;;14.55;4.78;;;;;;;;;;4233515;33;20512;-63
2022/07/22 06:56:02;;;;;;;13.35;4.87;;;;;;;;;;4246672;33;20097;-63
2022/07/22 06:58:28;;;;;;;18.87;8.52;;;;;;;;;;4246723;33;20116;-64
2022/07/22 07:00:53;;;;;;;18.20;7.80;;;;;;;;;;4233711;33;20472;-63
2022/07/22 07:03:20;;;;;;;16.90;8.90;;;;;;;;;;4246833;33;20109;-63
2022/07/22 07:05:46;;;;;;;10.90;4.68;;;;;;;;;;4246530;33;20104;-64
2022/07/22 07:08:12;;;;;;;11.23;4.65;;;;;;;;;;4246538;33;20558;-66
2022/07/22 07:10:38;;;;;;;7.90;4.20;;;;;;;;;;4233452;33;20120;-65
2022/07/22 07:13:04;;;;;;;13.80;4.80;;;;;;;;;;4246322;33;20193;-63
2022/07/22 07:15:30;;;;;;;10.23;5.05;;;;;;;;;;4246699;33;20132;-62
2022/07/22 07:17:56;;;;;;;9.43;5.78;;;;;;;;;;4233477;33;20112;-63
2022/07/22 07:20:23;;;;;;;11.48;6.37;;;;;;;;;;4246431;33;20128;-65
2022/07/22 07:22:49;;;;;;;7.10;5.68;;;;;;;;;;4233316;33;20457;-62
2022/07/22 07:25:16;;;;;;;10.10;5.75;;;;;;;;;;4246623;33;20128;-62
2022/07/22 07:27:42;;;;;;;20.58;6.35;;;;;;;;;;4246260;33;20132;-64
2022/07/22 07:30:11;;;;;;;8.50;3.80;;;;;;;;;;4246311;33;20125;-64
2022/07/22 07:32:38;;;;;;;8.45;4.05;;;;;;;;;;4246226;33;20111;-65
2022/07/22 07:35:05;;;;;;;10.15;3.75;;;;;;;;;;4246183;33;20132;-61
2022/07/22 07:37:32;;;;;;;10.63;4.22;;;;;;;;;;4246160;33;20120;-63
2022/07/22 07:39:59;;;;;;;8.23;4.30;;;;;;;;;;4209834;33;20120;-63
2022/07/22 07:42:27;;;;;;;9.85;4.53;;;;;;;;;;4221158;33;20109;-64
2022/07/22 07:44:53;;;;;;;11.00;4.25;;;;;;;;;;4246386;33;20095;-62
2022/07/22 07:47:20;;;;;;;9.65;3.95;;;;;;;;;;4232960;33;20113;-63
2022/07/22 07:49:47;;;;;;;9.88;3.80;;;;;;;;;;4246410;33;20105;-62
2022/07/22 07:52:14;;;;;;;5.50;3.87;;;;;;;;;;4235097;33;20520;-62
2022/07/22 07:54:40;;;;;;;13.68;5.15;;;;;;;;;;4248470;33;20172;-63
2022/07/22 07:57:08;;;;;;;6.87;3.58;;;;;;;;;;4248461;33;20113;-62
2022/07/22 07:59:34;;;;;;;11.80;3.60;;;;;;;;;;4248423;33;20101;-62
2022/07/22 08:02:00;;;;;;;6.87;3.95;;;;;;;;;;4248113;33;20131;-65
2022/07/22 08:04:27;;;;;;;19.67;3.75;;;;;;;;;;4223278;33;20132;-62
2022/07/22 08:06:53;;;;;;;5.10;3.03;;;;;;;;;;4248023;33;20124;-63
2022/07/22 08:09:18;;;;;;;7.20;3.95;;;;;;;;;;4248350;33;20180;-64
2022/07/22 08:11:44;;;;;;;20.02;3.45;;;;;;;;;;4248311;33;20468;-61
2022/07/22 08:14:11;;;;;;;7.80;5.35;;;;;;;;;;4235033;33;20124;-62
2022/07/22 08:16:37;;;;;;;7.57;4.07;;;;;;;;;;4248009;33;20104;-62
2022/07/22 08:19:04;;;;;;;4.93;3.80;;;;;;;;;;4234537;33;20117;-62
2022/07/22 08:21:31;;;;;;;7.75;3.95;;;;;;;;;;4211684;33;20123;-63
2022/07/22 08:23:57;;;;;;;11.90;4.50;;;;;;;;;;4248085;33;20529;-63
2022/07/22 08:26:24;;;;;;;9.63;4.25;;;;;;;;;;4234913;33;20184;-62
2022/07/22 08:28:50;;;;;;;5.55;3.22;;;;;;;;;;4247840;33;20101;-62
2022/07/22 08:31:16;;;;;;;4.10;2.80;;;;;;;;;;4247908;33;20089;-62
2022/07/22 08:33:42;;;;;;;7.37;3.35;;;;;;;;;;4248024;33;20144;-61
2022/07/22 08:36:08;;;;;;;8.02;2.83;;;;;;;;;;4248024;33;20105;-62
2022/07/22 08:38:35;;;;;;;5.05;2.15;;;;;;;;;;4248025;33;20528;-63
2022/07/22 08:41:03;;;;;;;6.43;2.20;;;;;;;;;;4234367;33;20512;-62
2022/07/22 08:43:30;;;;;;;5.47;2.33;;;;;;;;;;4247933;33;20184;-62
2022/07/22 08:45:57;;;;;;;4.12;2.55;;;;;;;;;;4247817;33;20108;-63
2022/07/22 08:48:23;;;;;;;7.97;2.20;;;;;;;;;;4247775;33;20120;-62
2022/07/22 08:50:49;;;;;;;7.53;2.12;;;;;;;;;;4248056;33;20547;-62
2022/07/22 08:53:15;;;;;;;8.95;2.17;;;;;;;;;;4247894;33;20136;-64
2022/07/22 08:55:46;;;;;;;5.80;2.28;;;;;;;;;;4234651;33;20117;-65
2022/07/22 08:58:12;;;;;;;5.62;2.00;;;;;;;;;;4222734;33;20109;-65
2022/07/22 09:00:39;;;;;;;6.97;2.42;;;;;;;;;;4234177;33;20551;-64
2022/07/22 09:03:22;;;;;;;5.45;2.20;;;;;;;;;;4247722;33;20110;-65
2022/07/22 09:05:51;;;;;;;5.35;2.75;;;;;;;;;;4234500;33;20109;-66
2022/07/22 09:08:19;;;;;;;5.78;2.17;;;;;;;;;;4222855;33;20208;-64
2022/07/22 09:10:45;;;;;;;4.40;2.35;;;;;;;;;;4234402;33;20422;-64
2022/07/22 09:13:11;;;;;;;4.22;2.08;;;;;;;;;;4247436;33;20100;-62
2022/07/22 09:15:41;;;;;;;3.70;2.20;;;;;;;;;;4247815;33;20097;-64
2022/07/22 09:18:09;;;;;;;5.15;1.80;;;;;;;;;;4234074;33;20113;-61
2022/07/22 09:20:36;;;;;;;4.57;2.62;;;;;;;;;;4247482;33;20093;-63
2022/07/22 09:23:03;;;;;;;5.97;2.17;;;;;;;;;;4234436;33;20196;-65
2022/07/22 09:25:34;;;;;;;3.55;1.85;;;;;;;;;;4234231;33;20540;-61
2022/07/22 09:28:06;;;;;;;5.05;2.15;;;;;;;;;;4222500;33;20101;-62
2022/07/22 09:30:34;;;;;;;5.90;1.77;;;;;;;;;;4247409;33;20120;-61
2022/07/22 09:33:00;;;;;;;6.40;2.70;;;;;;;;;;4247305;33;20203;-61
2022/07/22 09:35:27;;;;;;;6.25;2.42;;;;;;;;;;4247466;33;20123;-60
2022/07/22 09:37:58;;;;;;;3.22;1.80;;;;;;;;;;4234065;33;20121;-61
2022/07/22 09:40:28;;;;;;;5.10;1.98;;;;;;;;;;4234140;33;20104;-61
2022/07/22 09:42:59;;;;;;;4.15;2.17;;;;;;;;;;4234673;33;20484;-63
2022/07/22 09:45:28;;;;;;;5.85;2.37;;;;;;;;;;4247242;33;20089;-62
2022/07/22 09:47:59;;;;;;;2.70;2.45;;;;;;;;;;4247154;33;20113;-64
2022/07/22 09:50:25;;;;;;;5.55;2.25;;;;;;;;;;4234190;33;20104;-63
2022/07/22 09:52:54;;;;;;;3.62;2.10;;;;;;;;;;4247371;33;20112;-63
2022/07/22 09:55:21;;;;;;;2.30;2.00;;;;;;;;;;4247211;33;20104;-62
2022/07/22 09:57:49;;;;;;;8.38;2.30;;;;;;;;;;4234018;33;20112;-63
2022/07/22 10:00:18;;;;;;;3.95;2.30;;;;;;;;;;4211036;33;20123;-63
2022/07/22 10:03:00;;;;;;;7.03;2.67;;;;;;;;;;4233891;33;20105;-63
2022/07/22 10:05:31;;;;;;;4.28;2.20;;;;;;;;;;4247263;33;20526;-62
2022/07/22 10:07:58;;;;;;;8.05;2.92;;;;;;;;;;4210523;33;20532;-63
2022/07/22 10:10:26;;;;;;;5.70;2.25;;;;;;;;;;4233840;33;20524;-64
2022/07/22 10:12:54;;;;;;;4.62;2.12;;;;;;;;;;4246410;33;20108;-63
2022/07/22 10:15:21;;;;;;;4.18;2.37;;;;;;;;;;4233891;33;20136;-65
2022/07/22 10:17:50;;;;;;;7.03;2.12;;;;;;;;;;4234024;33;20097;-63
2022/07/22 10:20:23;;;;;;;3.95;2.85;;;;;;;;;;4234085;33;20203;-64
2022/07/22 10:22:50;;;;;;;5.03;2.35;;;;;;;;;;4234042;33;20120;-63
2022/07/22 10:25:18;;;;;;;3.60;2.15;;;;;;;;;;4234148;33;20131;-64
2022/07/22 10:27:47;;;;;;;7.62;2.97;;;;;;;;;;4233971;33;20536;-64
2022/07/22 10:30:15;;;;;;;5.53;2.33;;;;;;;;;;4246993;33;20630;-64
2022/07/22 10:32:41;;;;;;;5.97;2.47;;;;;;;;;;4247166;33;20098;-62
2022/07/22 10:35:10;;;;;;;2.12;1.98;;;;;;;;;;4233743;33;20112;-62
2022/07/22 10:37:43;;;;;;;4.07;2.20;;;;;;;;;;4253424;33;20140;-64
2022/07/22 10:40:13;;;;;;;5.75;2.42;;;;;;;;;;4260868;33;20218;-63
2022/07/22 10:43:00;;;;;;;3.92;2.40;;;;;;;;;;4247715;33;20109;-64
2022/07/22 10:45:33;;;;;;;5.75;2.20;;;;;;;;;;4247663;33;20128;-64
2022/07/22 10:48:01;;;;;;;4.12;2.47;;;;;;;;;;4247698;33;20207;-64
2022/07/22 10:50:35;;;;;;;2.97;2.00;;;;;;;;;;4247657;33;20191;-62
2022/07/22 10:53:05;;;;;;;8.27;2.30;;;;;;;;;;4260694;33;20509;-63
2022/07/22 10:55:31;;;;;;;3.87;2.40;;;;;;;;;;4247818;33;20135;-61
2022/07/22 10:57:57;;;;;;;2.70;2.12;;;;;;;;;;4260891;33;20496;-63
2022/07/22 11:00:23;;;;;;;5.05;2.60;;;;;;;;;;4260713;33;20109;-62
2022/07/22 11:02:49;;;;;;;7.57;3.25;;;;;;;;;;4260532;33;20119;-63
2022/07/22 11:05:25;;;;;;;11.32;2.97;;;;;;;;;;4260835;33;20132;-62
2022/07/22 11:07:51;;;;;;;3.67;2.65;;;;;;;;;;4260514;33;20088;-62
2022/07/22 11:10:19;;;;;;;6.53;2.72;;;;;;;;;;4260525;33;20124;-63
2022/07/22 11:12:46;;;;;;;5.60;3.10;;;;;;;;;;4247646;33;20170;-63
2022/07/22 11:15:12;;;;;;;10.80;3.33;;;;;;;;;;4260593;33;20128;-61
2022/07/22 11:17:39;;;;;;;11.88;2.80;;;;;;;;;;4260395;33;20116;-64
2022/07/22 11:20:08;;;;;;;10.23;3.10;;;;;;;;;;4260768;33;20097;-63
2022/07/22 11:22:34;;;;;;;8.13;2.80;;;;;;;;;;4260536;33;20104;-64
2022/07/22 11:25:02;;;;;;;6.28;2.60;;;;;;;;;;4260414;33;20108;-63
2022/07/22 11:27:28;;;;;;;5.47;2.33;;;;;;;;;;4260566;33;20206;-63
2022/07/22 11:29:56;;;;;;;5.57;2.35;;;;;;;;;;4260657;33;20116;-64
2022/07/22 11:32:23;;;;;;;6.22;2.30;;;;;;;;;;4260270;33;20685;-62
2022/07/22 11:34:49;;;;;;;4.95;2.20;;;;;;;;;;4260550;33;20138;-62
2022/07/22 11:37:17;;;;;;;6.35;2.45;;;;;;;;;;4260248;33;20107;-62
2022/07/22 11:39:44;;;;;;;8.15;3.17;;;;;;;;;;4247241;33;20581;-62
2022/07/22 11:42:10;;;;;;;8.13;2.60;;;;;;;;;;4260282;33;20536;-63
2022/07/22 11:44:37;;;;;;;7.05;2.55;;;;;;;;;;4260240;33;20126;-63
2022/07/22 11:47:05;;;;;;;5.78;2.47;;;;;;;;;;4246953;33;20188;-63
2022/07/22 11:49:36;;;;;;;5.25;2.05;;;;;;;;;;4247125;33;20093;-62
2022/07/22 11:52:11;;;;;;;9.90;2.58;;;;;;;;;;4247439;33;20156;-63
2022/07/22 11:54:39;;;;;;;4.28;2.28;;;;;;;;;;4235629;33;20101;-62
2022/07/22 11:57:06;;;;;;;4.53;2.40;;;;;;;;;;4247085;33;20124;-63
2022/07/22 11:59:33;;;;;;;6.72;2.80;;;;;;;;;;4247341;33;20477;-62
2022/07/22 12:01:59;;;;;;;5.70;2.67;;;;;;;;;;4246886;33;20191;-65
2022/07/22 12:04:27;;;;;;;7.15;2.67;;;;;;;;;;4247065;33;20448;-65
2022/07/22 12:06:57;;;;;;;4.30;2.12;;;;;;;;;;4259928;33;20108;-67
2022/07/22 12:09:25;;;;;;;6.15;2.40;;;;;;;;;;4259808;33;20109;-63
2022/07/22 12:11:55;;;;;;;2.42;1.85;;;;;;;;;;4246875;33;20115;-61
2022/07/22 12:14:24;;;;;;;6.55;2.25;;;;;;;;;;4259905;33;20176;-62
2022/07/22 12:16:56;;;;;;;3.30;2.08;;;;;;;;;;4259888;33;20160;-61
2022/07/22 12:19:22;;;;;;;3.95;2.05;;;;;;;;;;4259766;33;20532;-59
2022/07/22 12:21:54;;;;;;;12.55;2.67;;;;;;;;;;4259793;33;20122;-62
2022/07/22 12:24:39;;;;;;;2.65;2.08;;;;;;;;;;4259675;33;20084;-63
2022/07/22 12:27:09;;;;;;;10.07;1.95;;;;;;;;;;4260007;33;20469;-61
2022/07/22 12:29:35;;;;;;;2.42;1.90;;;;;;;;;;4259856;33;20109;-62
2022/07/22 12:32:08;;;;;;;9.63;1.85;;;;;;;;;;4259921;33;20464;-60
2022/07/22 12:35:04;;;;;;;8.15;2.45;;;;;;;;;;4253245;33;20092;-61
2022/07/22 12:37:43;;;;;;;6.18;2.20;;;;;;;;;;4234249;33;20559;-62
2022/07/22 12:40:18;;;;;;;8.82;2.15;;;;;;;;;;4235009;33;20131;-63
2022/07/22 12:42:45;;;;;;;;;;;;;;;;;;4248202;33;20125;-64
2022/07/22 12:45:12;;;;;;;3.58;2.55;;;;;;;;;;4234592;33;20404;-61
2022/07/22 12:48:03;;;;;;;10.00;2.80;;;;;;;;;;4235052;33;20120;-63
2022/07/22 12:50:35;;;;;;;4.65;2.80;;;;;;;;;;4228712;33;20116;-64
2022/07/22 12:53:04;;;;;;;7.37;3.08;;;;;;;;;;4247685;33;20211;-62
2022/07/22 12:55:31;;;;;;;6.22;2.80;;;;;;;;;;4247697;33;20100;-63
2022/07/22 12:57:56;;;;;;;6.35;2.67;;;;;;;;;;4247629;33;20152;-65
2022/07/22 13:00:25;;;;;;;14.25;3.10;;;;;;;;;;4234412;33;20128;-63
2022/07/22 13:02:52;;;;;;;5.12;2.75;;;;;;;;;;4211426;33;20124;-64
2022/07/22 13:05:19;;;;;;;6.62;2.55;;;;;;;;;;4247486;33;20119;-61
2022/07/22 13:07:45;;;;;;;9.80;3.08;;;;;;;;;;4234602;33;20117;-61
2022/07/22 13:10:12;;;;;;;10.43;3.40;;;;;;;;;;4247759;33;20107;-60
2022/07/22 13:12:38;;;;;;;4.15;3.33;;;;;;;;;;4247580;33;20579;-62
2022/07/22 13:15:04;;;;;;;6.78;3.12;;;;;;;;;;4247460;33;20119;-59
2022/07/22 13:17:30;;;;;;;17.02;3.00;;;;;;;;;;4247419;33;20133;-62
2022/07/22 13:19:56;;;;;;;7.55;3.12;;;;;;;;;;4247584;33;20616;-63
2022/07/22 13:22:22;;;;;;;5.25;3.25;;;;;;;;;;4247818;33;20188;-62
2022/07/22 13:24:49;;;;;;;6.35;3.20;;;;;;;;;;4247614;33;20107;-63
2022/07/22 13:27:15;;;;;;;10.52;3.70;;;;;;;;;;4247325;33;20134;-63
2022/07/22 13:29:41;;;;;;;6.97;3.08;;;;;;;;;;4247234;33;20515;-63
2022/07/22 13:32:07;;;;;;;12.85;5.07;;;;;;;;;;4247636;33;20469;-62
2022/07/22 13:34:33;;;;;;;9.13;3.53;;;;;;;;;;4247283;33;20113;-63
2022/07/22 13:37:00;;;;;;;7.22;3.40;;;;;;;;;;4247351;33;20175;-62
2022/07/22 13:39:27;;;;;;;6.85;3.08;;;;;;;;;;4242014;33;20215;-61
2022/07/22 13:41:54;;;;;;;11.98;3.33;;;;;;;;;;4206453;33;20123;-62
2022/07/22 13:44:20;;;;;;;16.12;3.95;;;;;;;;;;4247438;33;20132;-62
2022/07/22 13:46:46;;;;;;;5.85;2.83;;;;;;;;;;4247193;33;20128;-63
2022/07/22 13:49:12;;;;;;;7.18;2.85;;;;;;;;;;4247500;33;20120;-62
2022/07/22 13:51:39;;;;;;;7.37;3.05;;;;;;;;;;4234081;33;20564;-63
2022/07/22 13:54:04;;;;;;;9.88;3.10;;;;;;;;;;4247135;33;20536;-64
2022/07/22 13:56:34;;;;;;;6.37;3.17;;;;;;;;;;4246935;33;20109;-65
2022/07/22 13:59:00;;;;;;;6.53;3.22;;;;;;;;;;4233819;33;20531;-64
2022/07/22 14:01:26;;;;;;;12.75;3.78;;;;;;;;;;4233956;33;20104;-63
2022/07/22 14:03:52;;;;;;;6.25;2.97;;;;;;;;;;4247296;33;20105;-64
2022/07/22 14:06:18;;;;;;;3.65;2.60;;;;;;;;;;4235624;33;20097;-63
2022/07/22 14:08:45;;;;;;;17.98;3.40;;;;;;;;;;4235335;33;20120;-62
2022/07/22 14:11:11;;;;;;;5.47;2.67;;;;;;;;;;4226524;33;20461;-61
2022/07/22 14:13:37;;;;;;;3.30;2.20;;;;;;;;;;4239851;33;20103;-63
2022/07/22 14:18:48;;;;;;;2.90;2.00;;;;;;;;;;4233889;33;20168;-64
2022/07/22 14:21:14;;;;;;;4.55;2.17;;;;;;;;;;4236459;33;20626;-62
2022/07/22 14:23:40;;;;;;;6.10;2.62;;;;;;;;;;4239001;33;20419;-61
2022/07/22 14:26:06;;;;;;;4.50;2.15;;;;;;;;;;4239447;33;20512;-59
2022/07/22 14:28:32;;;;;;;6.68;2.50;;;;;;;;;;4238349;33;20090;-63
2022/07/22 14:30:58;;;;;;;2.28;1.70;;;;;;;;;;4223222;33;20078;-62
2022/07/22 14:33:24;;;;;;;2.95;2.00;;;;;;;;;;4238092;33;20125;-59
2022/07/22 14:35:50;;;;;;;7.78;1.80;;;;;;;;;;4240223;33;20546;-59
2022/07/22 14:38:17;;;;;;;4.57;2.12;;;;;;;;;;4239080;33;20213;-60
2022/07/22 14:40:43;;;;;;;2.90;1.98;;;;;;;;;;4239179;33;20197;-60
2022/07/22 14:43:09;;;;;;;3.87;1.90;;;;;;;;;;4239989;33;20156;-59
2022/07/22 14:45:35;;;;;;;2.78;1.83;;;;;;;;;;4240436;33;20104;-61
2022/07/22 14:48:01;;;;;;;4.28;1.90;;;;;;;;;;4228968;33;20680;-61
2022/07/22 14:50:27;;;;;;;2.20;2.00;;;;;;;;;;4239058;33;20219;-63
2022/07/22 14:52:53;;;;;;;3.08;1.95;;;;;;;;;;4239779;33;20096;-63
2022/07/22 14:55:19;;;;;;;6.50;2.12;;;;;;;;;;4240505;33;20089;-63
2022/07/22 14:57:45;;;;;;;3.92;2.35;;;;;;;;;;4242105;33;20141;-61
2022/07/22 15:00:11;;;;;;;5.87;2.20;;;;;;;;;;4239929;33;20124;-64
2022/07/22 15:02:37;;;;;;;9.15;2.45;;;;;;;;;;4246545;33;20124;-64
2022/07/22 15:05:04;;;;;;;6.25;2.40;;;;;;;;;;4246665;33;20633;-64
2022/07/22 15:07:30;;;;;;;5.32;2.65;;;;;;;;;;4240715;33;20552;-64
2022/07/22 15:09:56;;;;;;;2.30;2.10;;;;;;;;;;4236227;33;20111;-66
2022/07/22 15:12:22;;;;;;;2.35;2.10;;;;;;;;;;4232309;33;20125;-63